sensor_id;sensor_type;location;lat;lon;timestamp;temperature;humidity
7684;DHT22;3884;48.616;12.872;2023-04-06T00:00:40;-0.30;99.90
7684;DHT22;3884;48.616;12.872;2023-04-06T00:03:09;-0.30;99.90
7684;DHT22;3884;48.616;12.872;2023-04-06T00:05:36;-0.30;99.90
7684;DHT22;3884;48.616;12.872;2023-04-06T00:08:03;-0.30;99.90
7684;DHT22;3884;48.616;12.872;2023-04-06T00:10:30;-0.30;99.90
7684;DHT22;3884;48.616;12.872;2023-04-06T00:12:58;-0.30;48.40
7684;DHT22;3884;48.616;12.872;2023-04-06T00:15:25;-0.30;21.00
7684;DHT22;3884;48.616;12.872;2023-04-06T00:17:52;-0.20;54.50
7684;DHT22;3884;48.616;12.872;2023-04-06T00:20:20;-0.20;15.70
7684;DHT22;3884;48.616;12.872;2023-04-06T00:22:47;-0.20;9.90
7684;DHT22;3884;48.616;12.872;2023-04-06T00:25:14;-0.20;1.00
7684;DHT22;3884;48.616;12.872;2023-04-06T00:27:42;-0.30;1.00
7684;DHT22;3884;48.616;12.872;2023-04-06T00:30:09;-0.30;1.00
7684;DHT22;3884;48.616;12.872;2023-04-06T00:32:36;-0.20;1.00
7684;DHT22;3884;48.616;12.872;2023-04-06T00:35:04;-0.20;1.00
7684;DHT22;3884;48.616;12.872;2023-04-06T00:37:32;-0.20;1.00
7684;DHT22;3884;48.616;12.872;2023-04-06T00:40:00;-0.30;1.00
7684;DHT22;3884;48.616;12.872;2023-04-06T00:42:28;-0.50;1.00
7684;DHT22;3884;48.616;12.872;2023-04-06T00:44:56;-0.50;1.00
7684;DHT22;3884;48.616;12.872;2023-04-06T00:47:24;-0.40;1.00
7684;DHT22;3884;48.616;12.872;2023-04-06T00:49:52;-0.40;1.00
7684;DHT22;3884;48.616;12.872;2023-04-06T00:52:19;-0.40;1.00
7684;DHT22;3884;48.616;12.872;2023-04-06T00:54:49;-0.40;1.00
7684;DHT22;3884;48.616;12.872;2023-04-06T00:57:18;-0.40;12.90
7684;DHT22;3884;48.616;12.872;2023-04-06T00:59:52;-0.40;30.90
7684;DHT22;3884;48.616;12.872;2023-04-06T01:02:19;-0.50;1.00
7684;DHT22;3884;48.616;12.872;2023-04-06T01:04:49;-0.50;33.90
7684;DHT22;3884;48.616;12.872;2023-04-06T01:07:25;-0.50;27.40
7684;DHT22;3884;48.616;12.872;2023-04-06T01:10:06;-0.50;24.90
7684;DHT22;3884;48.616;12.872;2023-04-06T01:12:34;-0.50;99.90
7684;DHT22;3884;48.616;12.872;2023-04-06T01:15:07;-0.50;99.90
7684;DHT22;3884;48.616;12.872;2023-04-06T01:17:37;-0.50;99.90
7684;DHT22;3884;48.616;12.872;2023-04-06T01:20:10;-0.50;99.90
7684;DHT22;3884;48.616;12.872;2023-04-06T01:22:39;-0.50;99.90
7684;DHT22;3884;48.616;12.872;2023-04-06T01:25:07;-0.60;99.90
7684;DHT22;3884;48.616;12.872;2023-04-06T01:27:45;-0.70;99.90
7684;DHT22;3884;48.616;12.872;2023-04-06T01:30:20;-0.60;99.90
7684;DHT22;3884;48.616;12.872;2023-04-06T01:32:55;-0.70;1.00
7684;DHT22;3884;48.616;12.872;2023-04-06T01:35:53;-0.80;1.00
7684;DHT22;3884;48.616;12.872;2023-04-06T01:38:21;-1.10;1.00
7684;DHT22;3884;48.616;12.872;2023-04-06T01:40:49;-1.30;1.00
7684;DHT22;3884;48.616;12.872;2023-04-06T01:43:18;-1.40;1.00
7684;DHT22;3884;48.616;12.872;2023-04-06T01:46:01;-1.30;1.00
7684;DHT22;3884;48.616;12.872;2023-04-06T01:48:33;-1.30;1.00
7684;DHT22;3884;48.616;12.872;2023-04-06T01:54:56;-1.40;1.00
7684;DHT22;3884;48.616;12.872;2023-04-06T01:57:52;-1.30;1.00
7684;DHT22;3884;48.616;12.872;2023-04-06T02:00:30;-1.40;1.00
7684;DHT22;3884;48.616;12.872;2023-04-06T02:02:57;-1.60;1.00
7684;DHT22;3884;48.616;12.872;2023-04-06T02:05:26;-1.80;1.00
7684;DHT22;3884;48.616;12.872;2023-04-06T02:07:55;-1.80;99.90
7684;DHT22;3884;48.616;12.872;2023-04-06T02:10:31;-1.80;70.20
7684;DHT22;3884;48.616;12.872;2023-04-06T02:13:02;-1.80;99.90
7684;DHT22;3884;48.616;12.872;2023-04-06T02:15:30;-1.70;99.90
7684;DHT22;3884;48.616;12.872;2023-04-06T02:17:59;-1.70;99.90
7684;DHT22;3884;48.616;12.872;2023-04-06T02:20:26;-1.60;99.90
7684;DHT22;3884;48.616;12.872;2023-04-06T02:22:53;-1.50;46.60
7684;DHT22;3884;48.616;12.872;2023-04-06T02:25:20;-1.60;1.00
7684;DHT22;3884;48.616;12.872;2023-04-06T02:27:48;-1.60;1.90
7684;DHT22;3884;48.616;12.872;2023-04-06T02:30:15;-1.50;1.00
7684;DHT22;3884;48.616;12.872;2023-04-06T02:32:42;-1.40;1.00
7684;DHT22;3884;48.616;12.872;2023-04-06T02:35:09;-1.40;1.00
7684;DHT22;3884;48.616;12.872;2023-04-06T02:37:38;-1.40;1.00
7684;DHT22;3884;48.616;12.872;2023-04-06T02:40:06;-1.50;1.00
7684;DHT22;3884;48.616;12.872;2023-04-06T02:42:33;-1.50;1.00
7684;DHT22;3884;48.616;12.872;2023-04-06T02:45:02;-1.60;1.00
7684;DHT22;3884;48.616;12.872;2023-04-06T02:47:35;-1.60;1.00
7684;DHT22;3884;48.616;12.872;2023-04-06T02:50:03;-1.70;1.00
7684;DHT22;3884;48.616;12.872;2023-04-06T02:52:32;-1.80;1.00
7684;DHT22;3884;48.616;12.872;2023-04-06T02:55:00;-2.00;1.00
7684;DHT22;3884;48.616;12.872;2023-04-06T02:57:29;-1.90;99.90
7684;DHT22;3884;48.616;12.872;2023-04-06T02:59:56;-1.90;37.70
7684;DHT22;3884;48.616;12.872;2023-04-06T03:02:33;-1.80;6.50
7684;DHT22;3884;48.616;12.872;2023-04-06T03:05:07;-1.90;37.00
7684;DHT22;3884;48.616;12.872;2023-04-06T03:07:38;-1.90;65.20
7684;DHT22;3884;48.616;12.872;2023-04-06T03:10:11;-1.80;72.70
7684;DHT22;3884;48.616;12.872;2023-04-06T03:12:38;-2.00;99.90
7684;DHT22;3884;48.616;12.872;2023-04-06T03:15:29;-2.00;85.50
7684;DHT22;3884;48.616;12.872;2023-04-06T03:18:10;-2.00;72.60
7684;DHT22;3884;48.616;12.872;2023-04-06T03:20:41;-2.00;17.30
7684;DHT22;3884;48.616;12.872;2023-04-06T03:23:09;-2.00;36.80
7684;DHT22;3884;48.616;12.872;2023-04-06T03:25:40;-2.00;1.00
7684;DHT22;3884;48.616;12.872;2023-04-06T03:28:09;-2.10;1.00
7684;DHT22;3884;48.616;12.872;2023-04-06T03:30:45;-2.20;36.60
7684;DHT22;3884;48.616;12.872;2023-04-06T03:33:16;-2.50;99.90
7684;DHT22;3884;48.616;12.872;2023-04-06T03:35:51;-2.60;1.00
7684;DHT22;3884;48.616;12.872;2023-04-06T03:38:19;-2.60;1.00
7684;DHT22;3884;48.616;12.872;2023-04-06T03:40:46;-2.50;1.00
7684;DHT22;3884;48.616;12.872;2023-04-06T03:43:13;-2.40;1.00
7684;DHT22;3884;48.616;12.872;2023-04-06T03:45:40;-2.30;1.00
7684;DHT22;3884;48.616;12.872;2023-04-06T03:48:08;-2.30;99.90
7684;DHT22;3884;48.616;12.872;2023-04-06T03:50:38;-2.30;99.90
7684;DHT22;3884;48.616;12.872;2023-04-06T03:53:05;-2.20;99.90
7684;DHT22;3884;48.616;12.872;2023-04-06T03:55:33;-2.30;12.70
7684;DHT22;3884;48.616;12.872;2023-04-06T03:58:00;-2.40;47.80
7684;DHT22;3884;48.616;12.872;2023-04-06T04:00:26;-2.50;97.20
7684;DHT22;3884;48.616;12.872;2023-04-06T04:02:54;-2.50;99.90
7684;DHT22;3884;48.616;12.872;2023-04-06T04:05:21;-2.50;99.90
7684;DHT22;3884;48.616;12.872;2023-04-06T04:07:53;-2.50;99.90
7684;DHT22;3884;48.616;12.872;2023-04-06T04:10:23;-2.70;99.90
7684;DHT22;3884;48.616;12.872;2023-04-06T04:12:51;-2.70;99.90
7684;DHT22;3884;48.616;12.872;2023-04-06T04:15:18;-2.60;99.90
7684;DHT22;3884;48.616;12.872;2023-04-06T04:17:45;-2.60;99.90
7684;DHT22;3884;48.616;12.872;2023-04-06T04:20:14;-2.70;99.90
7684;DHT22;3884;48.616;12.872;2023-04-06T04:22:42;-2.60;99.90
7684;DHT22;3884;48.616;12.872;2023-04-06T04:25:11;-2.90;99.90
7684;DHT22;3884;48.616;12.872;2023-04-06T04:27:43;-2.90;1.00
7684;DHT22;3884;48.616;12.872;2023-04-06T04:30:11;-2.90;1.00
7684;DHT22;3884;48.616;12.872;2023-04-06T04:32:38;-2.90;1.00
7684;DHT22;3884;48.616;12.872;2023-04-06T04:35:08;-2.90;1.00
7684;DHT22;3884;48.616;12.872;2023-04-06T04:37:40;-2.80;1.00
7684;DHT22;3884;48.616;12.872;2023-04-06T04:40:08;-2.90;1.00
7684;DHT22;3884;48.616;12.872;2023-04-06T04:42:47;-2.90;1.00
7684;DHT22;3884;48.616;12.872;2023-04-06T04:45:22;-3.00;1.00
7684;DHT22;3884;48.616;12.872;2023-04-06T04:47:49;-3.00;1.00
7684;DHT22;3884;48.616;12.872;2023-04-06T04:50:17;-3.00;1.00
7684;DHT22;3884;48.616;12.872;2023-04-06T04:52:47;-3.00;55.30
7684;DHT22;3884;48.616;12.872;2023-04-06T04:55:24;-2.90;99.10
7684;DHT22;3884;48.616;12.872;2023-04-06T04:57:56;-3.00;62.10
7684;DHT22;3884;48.616;12.872;2023-04-06T05:00:34;-3.00;1.00
7684;DHT22;3884;48.616;12.872;2023-04-06T05:03:01;-2.90;1.00
7684;DHT22;3884;48.616;12.872;2023-04-06T05:05:30;-2.90;99.90
7684;DHT22;3884;48.616;12.872;2023-04-06T05:07:58;-2.90;99.90
7684;DHT22;3884;48.616;12.872;2023-04-06T05:10:38;-2.80;99.90
7684;DHT22;3884;48.616;12.872;2023-04-06T05:13:08;-2.80;99.90
7684;DHT22;3884;48.616;12.872;2023-04-06T05:15:35;-2.80;18.20
7684;DHT22;3884;48.616;12.872;2023-04-06T05:18:10;-2.70;1.00
7684;DHT22;3884;48.616;12.872;2023-04-06T05:20:38;-2.70;1.00
7684;DHT22;3884;48.616;12.872;2023-04-06T05:23:06;-2.70;1.00
7684;DHT22;3884;48.616;12.872;2023-04-06T05:25:33;-2.60;1.00
7684;DHT22;3884;48.616;12.872;2023-04-06T05:28:12;-2.60;1.00
7684;DHT22;3884;48.616;12.872;2023-04-06T05:30:42;-2.60;1.00
7684;DHT22;3884;48.616;12.872;2023-04-06T05:33:10;-2.50;1.00
7684;DHT22;3884;48.616;12.872;2023-04-06T05:36:15;-2.50;1.00
7684;DHT22;3884;48.616;12.872;2023-04-06T05:38:45;-2.50;1.00
7684;DHT22;3884;48.616;12.872;2023-04-06T05:41:23;-2.50;1.00
7684;DHT22;3884;48.616;12.872;2023-04-06T05:43:51;-2.50;28.80
7684;DHT22;3884;48.616;12.872;2023-04-06T05:46:18;-2.40;99.90
7684;DHT22;3884;48.616;12.872;2023-04-06T05:48:45;-2.40;99.90
7684;DHT22;3884;48.616;12.872;2023-04-06T05:51:13;-2.40;99.90
7684;DHT22;3884;48.616;12.872;2023-04-06T05:53:48;-2.30;99.90
7684;DHT22;3884;48.616;12.872;2023-04-06T05:56:15;-2.10;99.90
7684;DHT22;3884;48.616;12.872;2023-04-06T05:58:43;-2.00;35.30
7684;DHT22;3884;48.616;12.872;2023-04-06T06:01:14;-2.00;99.90
7684;DHT22;3884;48.616;12.872;2023-04-06T06:03:45;-1.80;1.00
7684;DHT22;3884;48.616;12.872;2023-04-06T06:06:12;-1.60;1.00
7684;DHT22;3884;48.616;12.872;2023-04-06T06:08:54;-1.60;1.00
7684;DHT22;3884;48.616;12.872;2023-04-06T06:11:24;-1.40;1.00
7684;DHT22;3884;48.616;12.872;2023-04-06T06:13:51;-1.30;1.00
7684;DHT22;3884;48.616;12.872;2023-04-06T06:16:19;-1.30;99.90
7684;DHT22;3884;48.616;12.872;2023-04-06T06:18:47;-1.10;99.90
7684;DHT22;3884;48.616;12.872;2023-04-06T06:21:15;-1.10;99.90
7684;DHT22;3884;48.616;12.872;2023-04-06T06:23:43;-0.90;99.90
7684;DHT22;3884;48.616;12.872;2023-04-06T06:26:14;-0.70;1.00
7684;DHT22;3884;48.616;12.872;2023-04-06T06:28:40;-0.60;1.00
7684;DHT22;3884;48.616;12.872;2023-04-06T06:31:09;-0.60;1.00
7684;DHT22;3884;48.616;12.872;2023-04-06T06:33:38;-0.50;1.00
7684;DHT22;3884;48.616;12.872;2023-04-06T06:36:05;-0.20;99.90
7684;DHT22;3884;48.616;12.872;2023-04-06T06:38:33;-0.10;99.90
7684;DHT22;3884;48.616;12.872;2023-04-06T06:41:00;0.10;99.90
7684;DHT22;3884;48.616;12.872;2023-04-06T06:43:30;0.20;8.20
7684;DHT22;3884;48.616;12.872;2023-04-06T06:46:01;0.40;1.00
7684;DHT22;3884;48.616;12.872;2023-04-06T06:48:27;0.60;1.00
7684;DHT22;3884;48.616;12.872;2023-04-06T06:50:56;0.80;1.00
7684;DHT22;3884;48.616;12.872;2023-04-06T06:53:23;1.10;1.00
7684;DHT22;3884;48.616;12.872;2023-04-06T06:55:50;1.20;1.00
7684;DHT22;3884;48.616;12.872;2023-04-06T06:58:18;1.40;1.00
7684;DHT22;3884;48.616;12.872;2023-04-06T07:00:45;1.60;99.90
7684;DHT22;3884;48.616;12.872;2023-04-06T07:03:12;1.80;99.90
7684;DHT22;3884;48.616;12.872;2023-04-06T07:05:39;2.10;99.90
7684;DHT22;3884;48.616;12.872;2023-04-06T07:08:16;2.40;99.90
7684;DHT22;3884;48.616;12.872;2023-04-06T07:10:43;2.70;1.00
7684;DHT22;3884;48.616;12.872;2023-04-06T07:13:09;2.90;1.00
7684;DHT22;3884;48.616;12.872;2023-04-06T07:15:37;3.20;1.00
7684;DHT22;3884;48.616;12.872;2023-04-06T07:18:04;3.50;1.00
7684;DHT22;3884;48.616;12.872;2023-04-06T07:20:31;3.60;1.00
7684;DHT22;3884;48.616;12.872;2023-04-06T07:22:58;3.60;1.00
7684;DHT22;3884;48.616;12.872;2023-04-06T07:25:26;3.80;1.00
7684;DHT22;3884;48.616;12.872;2023-04-06T07:27:53;4.10;1.00
7684;DHT22;3884;48.616;12.872;2023-04-06T07:30:20;4.20;1.00
7684;DHT22;3884;48.616;12.872;2023-04-06T07:32:47;4.40;1.00
7684;DHT22;3884;48.616;12.872;2023-04-06T07:35:14;4.50;1.00
7684;DHT22;3884;48.616;12.872;2023-04-06T07:37:42;4.60;99.90
7684;DHT22;3884;48.616;12.872;2023-04-06T07:40:09;4.60;1.00
7684;DHT22;3884;48.616;12.872;2023-04-06T07:42:38;4.90;1.00
7684;DHT22;3884;48.616;12.872;2023-04-06T07:45:09;4.90;99.90
7684;DHT22;3884;48.616;12.872;2023-04-06T07:47:36;4.70;99.90
7684;DHT22;3884;48.616;12.872;2023-04-06T07:50:04;5.10;99.90
7684;DHT22;3884;48.616;12.872;2023-04-06T07:52:31;5.50;99.90
7684;DHT22;3884;48.616;12.872;2023-04-06T07:54:59;5.90;99.90
7684;DHT22;3884;48.616;12.872;2023-04-06T07:57:26;6.00;99.90
7684;DHT22;3884;48.616;12.872;2023-04-06T07:59:54;6.00;99.90
7684;DHT22;3884;48.616;12.872;2023-04-06T08:02:21;5.80;99.90
7684;DHT22;3884;48.616;12.872;2023-04-06T08:04:48;5.90;99.90
7684;DHT22;3884;48.616;12.872;2023-04-06T08:07:15;6.10;99.90
7684;DHT22;3884;48.616;12.872;2023-04-06T08:09:42;6.20;99.90
7684;DHT22;3884;48.616;12.872;2023-04-06T08:12:09;6.60;99.90
7684;DHT22;3884;48.616;12.872;2023-04-06T08:14:36;6.50;99.90
7684;DHT22;3884;48.616;12.872;2023-04-06T08:17:04;6.70;99.90
7684;DHT22;3884;48.616;12.872;2023-04-06T08:19:31;7.10;99.90
7684;DHT22;3884;48.616;12.872;2023-04-06T08:21:57;7.30;99.90
7684;DHT22;3884;48.616;12.872;2023-04-06T08:24:24;7.60;99.90
7684;DHT22;3884;48.616;12.872;2023-04-06T08:26:51;7.30;99.90
7684;DHT22;3884;48.616;12.872;2023-04-06T08:29:18;7.50;99.90
7684;DHT22;3884;48.616;12.872;2023-04-06T08:31:45;7.70;99.90
7684;DHT22;3884;48.616;12.872;2023-04-06T08:34:13;7.90;99.90
7684;DHT22;3884;48.616;12.872;2023-04-06T08:36:40;8.20;99.90
7684;DHT22;3884;48.616;12.872;2023-04-06T08:39:07;8.00;99.90
7684;DHT22;3884;48.616;12.872;2023-04-06T08:41:34;7.90;99.90
7684;DHT22;3884;48.616;12.872;2023-04-06T08:44:02;8.30;99.90
7684;DHT22;3884;48.616;12.872;2023-04-06T08:46:30;8.40;99.90
7684;DHT22;3884;48.616;12.872;2023-04-06T08:48:57;8.10;99.90
7684;DHT22;3884;48.616;12.872;2023-04-06T08:51:27;8.20;99.90
7684;DHT22;3884;48.616;12.872;2023-04-06T08:53:55;8.30;99.90
7684;DHT22;3884;48.616;12.872;2023-04-06T08:56:22;8.50;99.90
7684;DHT22;3884;48.616;12.872;2023-04-06T08:58:49;8.40;99.90
7684;DHT22;3884;48.616;12.872;2023-04-06T09:01:23;8.50;99.90
7684;DHT22;3884;48.616;12.872;2023-04-06T09:03:54;8.70;99.90
7684;DHT22;3884;48.616;12.872;2023-04-06T09:06:22;8.40;99.90
7684;DHT22;3884;48.616;12.872;2023-04-06T09:08:50;8.50;99.90
7684;DHT22;3884;48.616;12.872;2023-04-06T09:11:17;8.40;99.90
7684;DHT22;3884;48.616;12.872;2023-04-06T09:13:48;8.40;99.90
7684;DHT22;3884;48.616;12.872;2023-04-06T09:16:15;8.40;99.90
7684;DHT22;3884;48.616;12.872;2023-04-06T09:18:42;8.30;99.90
7684;DHT22;3884;48.616;12.872;2023-04-06T09:21:09;7.90;99.90
7684;DHT22;3884;48.616;12.872;2023-04-06T09:23:37;7.50;99.90
7684;DHT22;3884;48.616;12.872;2023-04-06T09:26:10;7.10;99.90
7684;DHT22;3884;48.616;12.872;2023-04-06T09:28:44;7.30;99.90
7684;DHT22;3884;48.616;12.872;2023-04-06T09:31:12;7.30;99.90
7684;DHT22;3884;48.616;12.872;2023-04-06T09:33:40;7.30;99.90
7684;DHT22;3884;48.616;12.872;2023-04-06T09:36:08;7.20;99.90
7684;DHT22;3884;48.616;12.872;2023-04-06T09:38:37;7.20;99.90
7684;DHT22;3884;48.616;12.872;2023-04-06T09:41:04;7.00;99.90
7684;DHT22;3884;48.616;12.872;2023-04-06T09:43:32;7.10;99.90
7684;DHT22;3884;48.616;12.872;2023-04-06T09:46:00;6.90;99.90
7684;DHT22;3884;48.616;12.872;2023-04-06T09:48:31;7.00;99.90
7684;DHT22;3884;48.616;12.872;2023-04-06T09:51:03;6.90;99.90
7684;DHT22;3884;48.616;12.872;2023-04-06T09:53:31;7.00;99.90
7684;DHT22;3884;48.616;12.872;2023-04-06T09:56:02;7.30;99.90
7684;DHT22;3884;48.616;12.872;2023-04-06T09:58:34;7.70;99.90
7684;DHT22;3884;48.616;12.872;2023-04-06T10:01:07;7.80;99.90
7684;DHT22;3884;48.616;12.872;2023-04-06T10:03:43;7.80;99.90
7684;DHT22;3884;48.616;12.872;2023-04-06T10:06:13;8.10;99.90
7684;DHT22;3884;48.616;12.872;2023-04-06T10:08:43;8.10;99.90
7684;DHT22;3884;48.616;12.872;2023-04-06T10:11:12;8.10;99.90
7684;DHT22;3884;48.616;12.872;2023-04-06T10:13:40;8.10;99.90
7684;DHT22;3884;48.616;12.872;2023-04-06T10:16:08;8.20;99.90
7684;DHT22;3884;48.616;12.872;2023-04-06T10:18:36;8.50;99.90
7684;DHT22;3884;48.616;12.872;2023-04-06T10:21:08;8.60;99.90
7684;DHT22;3884;48.616;12.872;2023-04-06T10:23:36;8.50;99.90
7684;DHT22;3884;48.616;12.872;2023-04-06T10:26:13;8.80;99.90
7684;DHT22;3884;48.616;12.872;2023-04-06T10:28:43;8.90;99.90
7684;DHT22;3884;48.616;12.872;2023-04-06T10:31:10;8.70;99.90
7684;DHT22;3884;48.616;12.872;2023-04-06T10:33:37;8.60;99.90
7684;DHT22;3884;48.616;12.872;2023-04-06T10:36:12;8.50;99.90
7684;DHT22;3884;48.616;12.872;2023-04-06T10:38:41;8.30;99.90
7684;DHT22;3884;48.616;12.872;2023-04-06T10:41:09;8.30;99.90
7684;DHT22;3884;48.616;12.872;2023-04-06T10:43:38;8.30;99.90
7684;DHT22;3884;48.616;12.872;2023-04-06T10:46:07;8.40;99.90
7684;DHT22;3884;48.616;12.872;2023-04-06T10:48:37;8.30;99.90
7684;DHT22;3884;48.616;12.872;2023-04-06T10:51:08;8.30;99.90
7684;DHT22;3884;48.616;12.872;2023-04-06T10:53:35;8.30;99.90
7684;DHT22;3884;48.616;12.872;2023-04-06T10:56:02;8.50;99.90
7684;DHT22;3884;48.616;12.872;2023-04-06T10:58:30;8.50;99.90
7684;DHT22;3884;48.616;12.872;2023-04-06T11:00:57;8.50;99.90
7684;DHT22;3884;48.616;12.872;2023-04-06T11:03:26;8.40;99.90
7684;DHT22;3884;48.616;12.872;2023-04-06T11:05:54;8.50;99.90
7684;DHT22;3884;48.616;12.872;2023-04-06T11:08:29;8.50;99.90
7684;DHT22;3884;48.616;12.872;2023-04-06T11:11:07;8.40;99.90
7684;DHT22;3884;48.616;12.872;2023-04-06T11:13:41;8.40;99.90
7684;DHT22;3884;48.616;12.872;2023-04-06T11:16:15;8.40;99.90
7684;DHT22;3884;48.616;12.872;2023-04-06T11:18:52;8.50;99.90
7684;DHT22;3884;48.616;12.872;2023-04-06T11:21:30;8.40;99.90
7684;DHT22;3884;48.616;12.872;2023-04-06T11:24:04;8.30;99.90
7684;DHT22;3884;48.616;12.872;2023-04-06T11:26:36;8.50;99.90
7684;DHT22;3884;48.616;12.872;2023-04-06T11:29:03;8.60;99.90
7684;DHT22;3884;48.616;12.872;2023-04-06T11:31:30;8.40;99.90
7684;DHT22;3884;48.616;12.872;2023-04-06T11:33:58;8.50;99.90
7684;DHT22;3884;48.616;12.872;2023-04-06T11:36:27;8.50;99.90
7684;DHT22;3884;48.616;12.872;2023-04-06T11:38:54;8.60;99.90
7684;DHT22;3884;48.616;12.872;2023-04-06T11:41:23;8.80;99.90
7684;DHT22;3884;48.616;12.872;2023-04-06T11:43:51;8.90;99.90
7684;DHT22;3884;48.616;12.872;2023-04-06T11:46:21;9.00;99.90
7684;DHT22;3884;48.616;12.872;2023-04-06T11:48:48;8.90;99.90
7684;DHT22;3884;48.616;12.872;2023-04-06T11:51:35;9.00;99.90
7684;DHT22;3884;48.616;12.872;2023-04-06T11:57:02;8.70;99.90
7684;DHT22;3884;48.616;12.872;2023-04-06T11:59:28;8.60;99.90
7684;DHT22;3884;48.616;12.872;2023-04-06T12:01:56;8.60;99.90
7684;DHT22;3884;48.616;12.872;2023-04-06T12:04:24;8.80;99.90
7684;DHT22;3884;48.616;12.872;2023-04-06T12:06:52;8.60;99.90
7684;DHT22;3884;48.616;12.872;2023-04-06T12:09:19;8.70;99.90
7684;DHT22;3884;48.616;12.872;2023-04-06T12:11:46;9.00;99.90
7684;DHT22;3884;48.616;12.872;2023-04-06T12:14:13;9.00;99.90
7684;DHT22;3884;48.616;12.872;2023-04-06T12:16:40;9.10;99.90
7684;DHT22;3884;48.616;12.872;2023-04-06T12:19:07;9.00;99.90
7684;DHT22;3884;48.616;12.872;2023-04-06T12:21:34;9.10;99.90
7684;DHT22;3884;48.616;12.872;2023-04-06T12:24:04;9.00;99.90
7684;DHT22;3884;48.616;12.872;2023-04-06T12:26:32;9.20;99.90
7684;DHT22;3884;48.616;12.872;2023-04-06T12:28:59;9.50;99.90
7684;DHT22;3884;48.616;12.872;2023-04-06T12:31:30;9.50;99.90
7684;DHT22;3884;48.616;12.872;2023-04-06T12:33:57;9.70;99.90
7684;DHT22;3884;48.616;12.872;2023-04-06T12:36:24;9.60;99.90
7684;DHT22;3884;48.616;12.872;2023-04-06T12:38:51;9.50;99.90
7684;DHT22;3884;48.616;12.872;2023-04-06T12:41:19;9.60;99.90
7684;DHT22;3884;48.616;12.872;2023-04-06T12:43:46;9.60;99.90
7684;DHT22;3884;48.616;12.872;2023-04-06T12:46:15;9.70;99.90
7684;DHT22;3884;48.616;12.872;2023-04-06T12:48:42;9.80;99.90
7684;DHT22;3884;48.616;12.872;2023-04-06T12:51:09;9.90;99.90
7684;DHT22;3884;48.616;12.872;2023-04-06T12:53:36;10.00;99.90
7684;DHT22;3884;48.616;12.872;2023-04-06T12:56:11;10.30;99.90
7684;DHT22;3884;48.616;12.872;2023-04-06T12:58:39;10.40;99.90
7684;DHT22;3884;48.616;12.872;2023-04-06T13:01:07;10.40;99.90
7684;DHT22;3884;48.616;12.872;2023-04-06T13:03:34;10.50;99.90
7684;DHT22;3884;48.616;12.872;2023-04-06T13:06:01;10.40;99.90
7684;DHT22;3884;48.616;12.872;2023-04-06T13:08:29;9.90;99.90
7684;DHT22;3884;48.616;12.872;2023-04-06T13:10:56;9.60;99.90
7684;DHT22;3884;48.616;12.872;2023-04-06T13:13:24;9.80;99.90
7684;DHT22;3884;48.616;12.872;2023-04-06T13:15:52;10.40;99.90
7684;DHT22;3884;48.616;12.872;2023-04-06T13:18:21;10.70;99.90
7684;DHT22;3884;48.616;12.872;2023-04-06T13:20:48;10.90;99.90
7684;DHT22;3884;48.616;12.872;2023-04-06T13:23:15;10.90;99.90
7684;DHT22;3884;48.616;12.872;2023-04-06T13:25:42;11.00;99.90
7684;DHT22;3884;48.616;12.872;2023-04-06T13:28:10;10.80;99.90
7684;DHT22;3884;48.616;12.872;2023-04-06T13:30:37;10.50;99.90
7684;DHT22;3884;48.616;12.872;2023-04-06T13:33:06;10.30;99.90
7684;DHT22;3884;48.616;12.872;2023-04-06T13:35:32;10.20;99.90
7684;DHT22;3884;48.616;12.872;2023-04-06T13:38:01;10.30;99.90
7684;DHT22;3884;48.616;12.872;2023-04-06T13:40:28;10.60;99.90
7684;DHT22;3884;48.616;12.872;2023-04-06T13:42:54;10.70;99.90
7684;DHT22;3884;48.616;12.872;2023-04-06T13:45:21;10.90;99.90
7684;DHT22;3884;48.616;12.872;2023-04-06T13:47:48;10.90;99.90
7684;DHT22;3884;48.616;12.872;2023-04-06T13:50:16;10.60;99.90
7684;DHT22;3884;48.616;12.872;2023-04-06T13:52:43;10.30;99.90
7684;DHT22;3884;48.616;12.872;2023-04-06T13:55:10;10.20;99.90
7684;DHT22;3884;48.616;12.872;2023-04-06T13:57:37;10.20;99.90
7684;DHT22;3884;48.616;12.872;2023-04-06T14:00:05;10.00;99.90
7684;DHT22;3884;48.616;12.872;2023-04-06T14:02:32;9.90;99.90
7684;DHT22;3884;48.616;12.872;2023-04-06T14:04:59;10.10;99.90
7684;DHT22;3884;48.616;12.872;2023-04-06T14:07:27;10.30;99.90
7684;DHT22;3884;48.616;12.872;2023-04-06T14:09:54;10.00;99.90
7684;DHT22;3884;48.616;12.872;2023-04-06T14:12:21;9.60;99.90
7684;DHT22;3884;48.616;12.872;2023-04-06T14:14:47;9.80;99.90
7684;DHT22;3884;48.616;12.872;2023-04-06T14:17:15;9.70;99.90
7684;DHT22;3884;48.616;12.872;2023-04-06T14:19:42;9.80;99.90
7684;DHT22;3884;48.616;12.872;2023-04-06T14:22:10;10.00;99.90
7684;DHT22;3884;48.616;12.872;2023-04-06T14:24:38;10.20;99.90
7684;DHT22;3884;48.616;12.872;2023-04-06T14:27:05;10.50;99.90
7684;DHT22;3884;48.616;12.872;2023-04-06T14:29:32;10.60;99.90
7684;DHT22;3884;48.616;12.872;2023-04-06T14:31:59;11.00;99.90
7684;DHT22;3884;48.616;12.872;2023-04-06T14:34:26;11.20;99.90
7684;DHT22;3884;48.616;12.872;2023-04-06T14:36:53;11.20;99.90
7684;DHT22;3884;48.616;12.872;2023-04-06T14:39:20;11.10;99.90
7684;DHT22;3884;48.616;12.872;2023-04-06T14:41:48;11.30;99.90
7684;DHT22;3884;48.616;12.872;2023-04-06T14:44:15;11.60;99.90
7684;DHT22;3884;48.616;12.872;2023-04-06T14:46:42;12.00;99.90
7684;DHT22;3884;48.616;12.872;2023-04-06T14:49:09;12.20;99.90
7684;DHT22;3884;48.616;12.872;2023-04-06T14:51:36;12.10;99.90
7684;DHT22;3884;48.616;12.872;2023-04-06T14:54:03;11.40;99.90
7684;DHT22;3884;48.616;12.872;2023-04-06T14:56:29;11.20;99.90
7684;DHT22;3884;48.616;12.872;2023-04-06T14:58:59;10.70;99.90
7684;DHT22;3884;48.616;12.872;2023-04-06T15:01:27;10.90;99.90
7684;DHT22;3884;48.616;12.872;2023-04-06T15:03:53;11.40;99.90
7684;DHT22;3884;48.616;12.872;2023-04-06T15:06:20;11.80;99.90
7684;DHT22;3884;48.616;12.872;2023-04-06T15:08:48;12.10;99.90
7684;DHT22;3884;48.616;12.872;2023-04-06T15:11:15;12.40;99.90
7684;DHT22;3884;48.616;12.872;2023-04-06T15:13:42;12.60;99.90
7684;DHT22;3884;48.616;12.872;2023-04-06T15:16:10;12.70;99.90
7684;DHT22;3884;48.616;12.872;2023-04-06T15:18:37;12.50;99.90
7684;DHT22;3884;48.616;12.872;2023-04-06T15:21:04;11.80;99.90
7684;DHT22;3884;48.616;12.872;2023-04-06T15:23:31;11.20;99.90
7684;DHT22;3884;48.616;12.872;2023-04-06T15:25:59;11.00;99.90
7684;DHT22;3884;48.616;12.872;2023-04-06T15:28:27;11.10;99.90
7684;DHT22;3884;48.616;12.872;2023-04-06T15:30:54;11.90;99.90
7684;DHT22;3884;48.616;12.872;2023-04-06T15:33:22;12.10;99.90
7684;DHT22;3884;48.616;12.872;2023-04-06T15:35:49;12.50;99.90
7684;DHT22;3884;48.616;12.872;2023-04-06T15:38:16;12.40;99.90
7684;DHT22;3884;48.616;12.872;2023-04-06T15:40:44;12.50;99.90
7684;DHT22;3884;48.616;12.872;2023-04-06T15:43:12;12.30;99.90
7684;DHT22;3884;48.616;12.872;2023-04-06T15:45:39;12.80;99.90
7684;DHT22;3884;48.616;12.872;2023-04-06T15:48:06;13.10;99.90
7684;DHT22;3884;48.616;12.872;2023-04-06T15:50:35;13.10;99.90
7684;DHT22;3884;48.616;12.872;2023-04-06T15:53:01;13.20;99.90
7684;DHT22;3884;48.616;12.872;2023-04-06T15:55:28;12.40;99.90
7684;DHT22;3884;48.616;12.872;2023-04-06T15:57:55;11.10;99.90
7684;DHT22;3884;48.616;12.872;2023-04-06T16:00:22;10.70;99.90
7684;DHT22;3884;48.616;12.872;2023-04-06T16:02:50;10.50;99.90
7684;DHT22;3884;48.616;12.872;2023-04-06T16:05:17;10.90;99.90
7684;DHT22;3884;48.616;12.872;2023-04-06T16:07:45;11.30;99.90
7684;DHT22;3884;48.616;12.872;2023-04-06T16:10:12;11.80;99.90
7684;DHT22;3884;48.616;12.872;2023-04-06T16:12:38;12.10;99.90
7684;DHT22;3884;48.616;12.872;2023-04-06T16:15:07;11.70;99.90